createdAt,value
2018-09-10T00:01:42.146Z,6.50
2018-09-10T00:04:11.119Z,6.90
2018-09-10T00:06:40.106Z,6.87
2018-09-10T00:09:09.539Z,6.27
2018-09-10T00:11:39.191Z,7.00
2018-09-10T00:14:08.186Z,6.57
2018-09-10T00:16:37.215Z,6.57
2018-09-10T00:19:06.236Z,8.13
2018-09-10T00:21:35.263Z,6.77
2018-09-10T00:24:04.263Z,6.43
2018-09-10T00:26:33.497Z,5.97
2018-09-10T00:29:02.505Z,6.77
2018-09-10T00:31:31.500Z,7.10
2018-09-10T00:34:00.509Z,6.13
2018-09-10T00:36:29.498Z,6.03
2018-09-10T00:38:58.509Z,6.27
2018-09-10T00:41:27.882Z,6.57
2018-09-10T00:43:56.899Z,6.30
2018-09-10T00:46:25.890Z,6.70
2018-09-10T00:48:54.882Z,7.37
2018-09-10T00:51:24.202Z,7.43
2018-09-10T00:53:53.306Z,7.03
2018-09-10T00:56:22.662Z,7.77
2018-09-10T00:58:51.908Z,7.37
2018-09-10T01:01:21.554Z,8.23
2018-09-10T01:03:50.937Z,7.63
2018-09-10T01:06:19.953Z,6.93
2018-09-10T01:08:48.958Z,7.40
2018-09-10T01:11:17.963Z,7.43
2018-09-10T01:13:46.962Z,7.70
2018-09-10T01:16:15.999Z,7.07
2018-09-10T01:18:44.999Z,7.23
2018-09-10T01:21:14.030Z,7.37
2018-09-10T01:23:43.160Z,7.33
2018-09-10T01:26:12.182Z,7.53
2018-09-10T01:28:41.176Z,6.77
2018-09-10T01:31:10.389Z,7.17
2018-09-10T01:33:44.762Z,6.80
2018-09-10T01:36:14.077Z,6.97
2018-09-10T01:38:43.114Z,6.00
2018-09-10T01:41:19.013Z,6.23
2018-09-10T01:43:48.172Z,5.87
2018-09-10T01:46:17.245Z,5.50
2018-09-10T01:48:46.283Z,5.60
2018-09-10T01:51:15.340Z,5.70
2018-09-10T01:53:44.415Z,5.70
2018-09-10T01:56:13.718Z,5.17
2018-09-10T01:58:42.976Z,5.13
2018-09-10T02:01:12.215Z,5.47
2018-09-10T02:03:41.254Z,5.00
2018-09-10T02:06:10.433Z,5.23
2018-09-10T02:08:39.601Z,5.27
2018-09-10T02:11:08.679Z,4.87
2018-09-10T02:13:37.975Z,5.07
2018-09-10T02:16:11.091Z,4.60
2018-09-10T02:18:40.325Z,4.67
2018-09-10T02:21:09.345Z,4.90
2018-09-10T02:23:38.428Z,5.07
2018-09-10T02:26:07.644Z,4.30
2018-09-10T02:28:36.921Z,4.53
2018-09-10T02:31:06.377Z,4.63
2018-09-10T02:33:35.396Z,4.50
2018-09-10T02:36:04.878Z,4.10
2018-09-10T02:38:33.952Z,4.10
2018-09-10T02:41:02.928Z,4.67
2018-09-10T02:43:31.966Z,4.20
2018-09-10T02:46:01.203Z,4.27
2018-09-10T02:48:30.262Z,3.80
2018-09-10T02:50:59.265Z,4.30
2018-09-10T02:53:28.264Z,3.80
2018-09-10T02:55:57.300Z,4.20
2018-09-10T02:58:26.316Z,3.80
2018-09-10T03:00:55.357Z,4.27
2018-09-10T03:03:24.389Z,4.13
2018-09-10T03:05:53.422Z,3.70
2018-09-10T03:08:22.442Z,3.93
2018-09-10T03:10:51.496Z,4.07
2018-09-10T03:13:20.532Z,4.37
2018-09-10T03:15:49.609Z,3.93
2018-09-10T03:18:18.828Z,3.93
2018-09-10T03:20:48.217Z,4.10
2018-09-10T03:23:17.226Z,4.33
2018-09-10T03:25:46.580Z,4.03
2018-09-10T03:28:15.675Z,3.93
2018-09-10T03:30:44.978Z,4.57
2018-09-10T03:33:14.159Z,4.27
2018-09-10T03:35:43.170Z,4.03
2018-09-10T03:38:12.451Z,3.90
2018-09-10T03:40:41.468Z,4.13
2018-09-10T03:43:10.480Z,3.70
2018-09-10T03:45:39.479Z,3.23
2018-09-10T03:48:08.892Z,3.27
2018-09-10T03:50:37.889Z,3.90
2018-09-10T03:53:07.095Z,3.60
2018-09-10T03:55:36.324Z,4.00
2018-09-10T03:58:05.435Z,4.47
2018-09-10T04:00:34.590Z,4.30
2018-09-10T04:03:03.672Z,3.70
2018-09-10T04:05:32.912Z,4.27
2018-09-10T04:08:02.056Z,3.70
2018-09-10T04:10:31.048Z,3.60
2018-09-10T04:13:00.061Z,4.40
2018-09-10T04:15:29.491Z,4.00
2018-09-10T04:17:58.769Z,4.40
2018-09-10T04:20:28.005Z,5.13
2018-09-10T04:22:57.316Z,4.10
2018-09-10T04:25:26.314Z,3.73
2018-09-10T04:27:55.309Z,3.70
2018-09-10T04:30:25.073Z,3.60
2018-09-10T04:32:54.356Z,4.20
2018-09-10T04:35:23.644Z,3.83
2018-09-10T04:37:52.665Z,3.33
2018-09-10T04:40:22.024Z,3.73
2018-09-10T04:42:51.229Z,4.47
2018-09-10T04:45:20.232Z,3.50
2018-09-10T04:47:49.312Z,3.87
2018-09-10T04:50:18.389Z,3.53
2018-09-10T04:52:47.457Z,4.00
2018-09-10T04:55:16.752Z,3.40
2018-09-10T04:57:45.876Z,3.63
2018-09-10T05:00:14.888Z,4.23
2018-09-10T05:02:44.111Z,3.57
2018-09-10T05:05:13.106Z,3.77
2018-09-10T05:07:42.155Z,3.30
2018-09-10T05:10:11.147Z,3.33
2018-09-10T05:12:40.351Z,3.60
2018-09-10T05:15:09.421Z,3.50
2018-09-10T05:17:38.446Z,3.70
2018-09-10T05:20:07.743Z,4.20
2018-09-10T05:22:43.134Z,3.77
2018-09-10T05:25:12.176Z,4.20
2018-09-10T05:27:41.198Z,4.23
2018-09-10T05:30:11.471Z,4.20
2018-09-10T05:32:40.809Z,4.00
2018-09-10T05:35:09.811Z,4.17
2018-09-10T05:37:38.851Z,3.87
2018-09-10T05:40:09.308Z,3.93
2018-09-10T05:42:38.497Z,3.90
2018-09-10T05:45:09.814Z,3.57
2018-09-10T05:47:39.169Z,4.53
2018-09-10T05:50:09.157Z,4.33
2018-09-10T05:52:38.533Z,6.00
2018-09-10T05:55:07.859Z,4.33
2018-09-10T05:57:37.158Z,4.70
2018-09-10T06:00:08.484Z,4.47
2018-09-10T06:02:37.500Z,4.93
2018-09-10T06:05:06.586Z,4.10
2018-09-10T06:07:35.675Z,4.27
2018-09-10T06:10:04.825Z,4.67
2018-09-10T06:12:33.844Z,4.50
2018-09-10T06:15:02.899Z,5.20
2018-09-10T06:17:31.913Z,5.10
2018-09-10T06:20:01.209Z,4.60
2018-09-10T06:22:30.218Z,4.20
2018-09-10T06:24:59.550Z,7.07
2018-09-10T06:27:28.851Z,4.50
2018-09-10T06:29:57.871Z,4.40
2018-09-10T06:32:26.979Z,3.70
2018-09-10T06:34:56.366Z,3.60
2018-09-10T06:37:25.388Z,3.90
2018-09-10T06:39:54.444Z,3.33
2018-09-10T06:42:23.561Z,4.53
2018-09-10T06:44:52.569Z,4.10
2018-09-10T06:47:21.878Z,4.00
2018-09-10T06:49:50.922Z,3.90
2018-09-10T06:52:20.226Z,3.53
2018-09-10T06:54:49.354Z,3.90
2018-09-10T06:57:18.615Z,3.97
2018-09-10T06:59:47.700Z,3.90
2018-09-10T07:02:16.719Z,3.93
2018-09-10T07:04:46.052Z,4.23
2018-09-10T07:07:15.066Z,3.57
2018-09-10T07:09:44.384Z,3.70
2018-09-10T07:12:13.594Z,3.77
2018-09-10T07:14:42.807Z,3.37
2018-09-10T07:17:11.871Z,3.83
2018-09-10T07:19:41.329Z,3.87
2018-09-10T07:22:10.344Z,4.10
2018-09-10T07:24:39.484Z,4.73
2018-09-10T07:27:08.541Z,3.83
2018-09-10T07:29:37.659Z,4.00
2018-09-10T07:32:06.727Z,3.23
2018-09-10T07:34:35.824Z,3.80
2018-09-10T07:37:04.768Z,3.37
2018-09-10T07:39:33.827Z,3.03
2018-09-10T07:42:02.928Z,3.20
2018-09-10T07:44:31.936Z,3.57
2018-09-10T07:47:00.970Z,3.43
2018-09-10T07:49:30.024Z,4.43
2018-09-10T07:51:59.048Z,3.50
2018-09-10T07:54:28.120Z,4.57
2018-09-10T07:56:57.123Z,4.70
2018-09-10T07:59:26.372Z,3.90
2018-09-10T08:01:55.372Z,3.60
2018-09-10T08:04:24.492Z,3.60
2018-09-10T08:06:53.783Z,3.60
2018-09-10T08:09:22.930Z,3.67
2018-09-10T08:11:51.906Z,4.40
2018-09-10T08:14:20.901Z,4.40
2018-09-10T08:16:49.916Z,3.57
2018-09-10T08:19:18.980Z,2.90
2018-09-10T08:21:48.275Z,3.20
2018-09-10T08:24:17.369Z,2.80
2018-09-10T08:26:46.642Z,2.53
2018-09-10T08:29:15.857Z,2.80
2018-09-10T08:31:45.189Z,2.90
2018-09-10T08:34:14.207Z,3.00
2018-09-10T08:36:43.786Z,2.50
2018-09-10T08:39:13.175Z,2.67
2018-09-10T08:41:42.359Z,2.90
2018-09-10T08:44:11.474Z,2.97
2018-09-10T08:46:40.594Z,2.67
2018-09-10T08:49:09.622Z,2.50
2018-09-10T08:51:38.942Z,2.23
2018-09-10T08:54:08.170Z,1.90
2018-09-10T08:56:37.229Z,2.10
2018-09-10T08:59:06.417Z,2.00
2018-09-10T09:01:35.615Z,2.27
2018-09-10T09:04:05.040Z,2.20
2018-09-10T09:06:34.069Z,2.30
2018-09-10T09:09:03.416Z,2.07
2018-09-10T09:11:32.480Z,1.73
2018-09-10T09:14:01.482Z,1.80
2018-09-10T09:16:30.531Z,1.97
2018-09-10T09:19:01.724Z,1.77
2018-09-10T09:21:30.766Z,2.30
2018-09-10T09:23:59.851Z,2.33
2018-09-10T09:26:28.924Z,2.13
2018-09-10T09:28:57.913Z,2.00
2018-09-10T09:31:27.312Z,1.93
2018-09-10T09:33:56.646Z,1.80
2018-09-10T09:36:31.098Z,1.90
2018-09-10T09:39:05.320Z,2.23
2018-09-10T09:41:39.957Z,2.70
2018-09-10T09:44:14.208Z,3.07
2018-09-10T09:46:43.240Z,2.20
2018-09-10T09:49:12.282Z,2.20
2018-09-10T09:51:41.552Z,2.73
2018-09-10T09:54:10.780Z,2.70
2018-09-10T09:56:39.827Z,2.53
2018-09-10T09:59:09.111Z,1.90
2018-09-10T10:01:45.299Z,2.37
2018-09-10T10:04:15.014Z,2.00
2018-09-10T10:06:44.258Z,2.30
2018-09-10T10:09:13.269Z,2.60
2018-09-10T10:11:42.399Z,2.07
2018-09-10T10:14:11.822Z,2.77
2018-09-10T10:16:40.937Z,2.50
2018-09-10T10:19:09.949Z,2.00
2018-09-10T10:21:39.039Z,2.90
2018-09-10T10:24:08.085Z,2.50
2018-09-10T10:26:37.217Z,2.30
2018-09-10T10:29:06.598Z,2.30
2018-09-10T10:31:35.611Z,2.13
2018-09-10T10:34:04.851Z,1.83
2018-09-10T10:36:34.002Z,2.57
2018-09-10T10:39:04.185Z,2.63
2018-09-10T10:41:33.468Z,2.90
2018-09-10T10:44:02.508Z,2.90
2018-09-10T10:46:31.580Z,2.57
2018-09-10T10:49:00.625Z,2.83
2018-09-10T10:51:29.875Z,2.80
2018-09-10T10:53:58.974Z,2.87
2018-09-10T10:56:28.149Z,2.03
2018-09-10T10:58:57.208Z,2.60
2018-09-10T11:01:26.563Z,2.40
2018-09-10T11:03:55.620Z,2.70
2018-09-10T11:06:25.001Z,2.10
2018-09-10T11:08:54.174Z,2.57
2018-09-10T11:11:23.481Z,2.40
2018-09-10T11:13:52.495Z,2.23
2018-09-10T11:16:21.577Z,2.00
2018-09-10T11:18:50.597Z,2.27
2018-09-10T11:21:19.873Z,2.00
2018-09-10T11:23:49.337Z,2.43
2018-09-10T11:26:18.615Z,2.43
2018-09-10T11:28:47.757Z,3.20
2018-09-10T11:31:16.787Z,2.73
2018-09-10T11:33:45.837Z,2.63
2018-09-10T11:36:14.912Z,2.50
2018-09-10T11:38:43.996Z,2.70
2018-09-10T11:41:13.048Z,3.63
2018-09-10T11:43:42.430Z,2.23
2018-09-10T11:46:11.486Z,2.00
2018-09-10T11:48:40.809Z,2.30
2018-09-10T11:51:09.949Z,2.10
2018-09-10T11:53:39.249Z,2.43
2018-09-10T11:56:08.288Z,3.00
2018-09-10T11:58:38.288Z,1.90
2018-09-10T12:01:07.807Z,2.10
2018-09-10T12:03:36.973Z,1.80
2018-09-10T12:06:06.195Z,2.40
2018-09-10T12:08:35.215Z,2.10
2018-09-10T12:11:04.295Z,1.60
2018-09-10T12:13:33.431Z,1.70
2018-09-10T12:16:02.706Z,2.30
2018-09-10T12:18:31.711Z,2.50
2018-09-10T12:21:00.762Z,2.10
2018-09-10T12:23:29.765Z,2.40
2018-09-10T12:25:59.016Z,2.40
2018-09-10T12:28:28.033Z,2.10
2018-09-10T12:30:57.048Z,2.07
2018-09-10T12:33:27.033Z,1.97
2018-09-10T12:35:56.065Z,1.67
2018-09-10T12:38:25.096Z,2.10
2018-09-10T12:40:54.179Z,2.20
2018-09-10T12:43:23.182Z,2.20
2018-09-10T12:45:52.353Z,2.50
2018-09-10T12:48:21.412Z,2.63
2018-09-10T12:50:50.510Z,2.10
2018-09-10T12:53:19.495Z,2.40
2018-09-10T12:55:48.532Z,1.80
2018-09-10T12:58:17.552Z,1.90
2018-09-10T13:00:46.565Z,1.60
2018-09-10T13:03:15.575Z,1.53
2018-09-10T13:05:44.594Z,2.17
2018-09-10T13:08:13.680Z,1.97
2018-09-10T13:10:42.747Z,1.90
2018-09-10T13:13:11.731Z,2.20
2018-09-10T13:15:41.054Z,2.00
2018-09-10T13:18:10.174Z,1.40
2018-09-10T13:20:39.193Z,1.73
2018-09-10T13:23:08.907Z,1.50
2018-09-10T13:25:38.432Z,1.80
2018-09-10T13:28:07.542Z,1.83
2018-09-10T13:30:36.784Z,1.73
2018-09-10T13:33:06.209Z,1.53
2018-09-10T13:35:35.231Z,1.60
2018-09-10T13:38:04.240Z,1.50
2018-09-10T13:40:33.268Z,2.17
2018-09-10T13:43:02.538Z,1.93
2018-09-10T13:45:31.593Z,5.30
2018-09-10T13:48:00.618Z,2.37
2018-09-10T13:50:29.644Z,2.03
2018-09-10T13:52:58.912Z,1.70
2018-09-10T13:55:28.100Z,1.87
2018-09-10T13:57:57.413Z,1.30
2018-09-10T14:00:26.619Z,1.60
2018-09-10T14:02:55.851Z,2.20
2018-09-10T14:05:24.899Z,1.77
2018-09-10T14:07:54.322Z,1.50
2018-09-10T14:10:23.375Z,1.73
2018-09-10T14:12:52.806Z,2.17
2018-09-10T14:15:21.960Z,1.50
2018-09-10T14:17:50.995Z,1.50
2018-09-10T14:20:20.054Z,1.80
2018-09-10T14:22:49.103Z,2.07
2018-09-10T14:25:18.120Z,1.80
2018-09-10T14:27:47.255Z,2.30
2018-09-10T14:30:16.603Z,1.90
2018-09-10T14:32:45.615Z,1.90
2018-09-10T14:35:14.660Z,1.97
2018-09-10T14:37:43.973Z,1.90
2018-09-10T14:40:13.049Z,1.90
2018-09-10T14:42:42.849Z,1.80
2018-09-10T14:45:11.982Z,1.53
2018-09-10T14:47:41.002Z,1.47
2018-09-10T14:50:10.301Z,1.73
2018-09-10T14:52:39.706Z,1.60
2018-09-10T14:55:08.772Z,1.80
2018-09-10T14:57:38.020Z,2.40
2018-09-10T15:00:07.296Z,1.63
2018-09-10T15:02:36.575Z,1.50
2018-09-10T15:05:05.784Z,2.00
2018-09-10T15:07:35.136Z,1.67
2018-09-10T15:10:04.436Z,2.17
2018-09-10T15:12:33.524Z,2.37
2018-09-10T15:15:02.766Z,4.70
2018-09-10T15:17:31.827Z,2.83
2018-09-10T15:20:01.152Z,2.63
2018-09-10T15:22:30.602Z,1.80
2018-09-10T15:24:59.987Z,2.03
2018-09-10T15:27:29.005Z,3.33
2018-09-10T15:29:58.062Z,2.90
2018-09-10T15:32:27.115Z,2.80
2018-09-10T15:34:56.232Z,2.50
2018-09-10T15:37:25.272Z,3.27
2018-09-10T15:39:54.308Z,3.43
2018-09-10T15:42:23.337Z,3.23
2018-09-10T15:44:52.592Z,2.57
2018-09-10T15:47:21.997Z,3.10
2018-09-10T15:49:51.723Z,2.43
2018-09-10T15:52:20.764Z,2.47
2018-09-10T15:54:49.848Z,2.23
2018-09-10T15:57:18.956Z,2.67
2018-09-10T15:59:48.027Z,2.87
2018-09-10T16:02:17.268Z,2.60
2018-09-10T16:04:46.492Z,2.30
2018-09-10T16:07:15.795Z,1.90
2018-09-10T16:09:45.400Z,1.77
2018-09-10T16:12:14.407Z,2.13
2018-09-10T16:14:43.746Z,1.67
2018-09-10T16:17:13.144Z,4.37
2018-09-10T16:19:42.536Z,3.23
2018-09-10T16:22:11.802Z,1.93
2018-09-10T16:24:40.855Z,2.47
2018-09-10T16:27:09.895Z,1.60
2018-09-10T16:29:39.096Z,1.70
2018-09-10T16:32:09.260Z,1.90
2018-09-10T16:34:39.528Z,1.80
2018-09-10T16:37:08.607Z,1.90
2018-09-10T16:39:37.683Z,1.73
2018-09-10T16:42:06.817Z,2.30
2018-09-10T16:44:36.093Z,2.17
2018-09-10T16:47:05.126Z,2.83
2018-09-10T16:49:34.703Z,2.03
2018-09-10T16:52:04.056Z,1.93
2018-09-10T16:54:33.365Z,1.87
2018-09-10T16:57:02.468Z,2.00
2018-09-10T16:59:31.471Z,1.90
2018-09-10T17:02:00.556Z,2.87
2018-09-10T17:04:29.839Z,1.80
2018-09-10T17:06:58.926Z,1.83
2018-09-10T17:09:28.081Z,2.10
2018-09-10T17:11:57.119Z,1.60
2018-09-10T17:14:29.557Z,1.90
2018-09-10T17:16:58.737Z,2.60
2018-09-10T17:19:27.779Z,2.17
2018-09-10T17:21:56.924Z,3.00
2018-09-10T17:24:26.187Z,1.80
2018-09-10T17:26:55.370Z,1.90
2018-09-10T17:29:24.678Z,2.23
2018-09-10T17:31:54.837Z,1.77
2018-09-10T17:34:24.192Z,1.60
2018-09-10T17:36:53.475Z,1.90
2018-09-10T17:39:22.638Z,2.43
2018-09-10T17:41:52.262Z,1.80
2018-09-10T17:44:21.376Z,1.83
2018-09-10T17:46:50.630Z,1.93
2018-09-10T17:49:20.545Z,1.77
2018-09-10T17:51:49.612Z,2.10
2018-09-10T17:54:19.087Z,2.90
2018-09-10T17:56:48.139Z,2.37
2018-09-10T17:59:17.365Z,2.43
2018-09-10T18:01:50.206Z,2.27
2018-09-10T18:04:19.447Z,2.57
2018-09-10T18:06:48.499Z,3.03
2018-09-10T18:09:17.954Z,3.10
2018-09-10T18:11:50.692Z,2.10
2018-09-10T18:14:19.894Z,2.47
2018-09-10T18:16:49.183Z,2.37
2018-09-10T18:19:19.266Z,2.77
2018-09-10T18:21:48.931Z,2.50
2018-09-10T18:24:18.409Z,3.20
2018-09-10T18:26:48.949Z,2.33
2018-09-10T18:29:18.886Z,2.90
2018-09-10T18:31:47.921Z,2.30
2018-09-10T18:34:17.996Z,2.47
2018-09-10T18:36:47.583Z,2.50
2018-09-10T18:39:17.463Z,2.90
2018-09-10T18:41:47.783Z,2.13
2018-09-10T18:44:16.902Z,2.10
2018-09-10T18:46:46.421Z,2.27
2018-09-10T18:49:15.517Z,2.27
2018-09-10T18:51:44.875Z,2.00
2018-09-10T18:54:16.091Z,2.17
2018-09-10T18:56:45.146Z,2.23
2018-09-10T18:59:14.239Z,2.23
2018-09-10T19:01:43.466Z,2.60
2018-09-10T19:04:12.695Z,2.57
2018-09-10T19:06:41.878Z,2.90
2018-09-10T19:09:11.966Z,2.27
2018-09-10T19:11:41.400Z,2.27
2018-09-10T19:14:10.472Z,2.40
2018-09-10T19:16:40.178Z,2.90
2018-09-10T19:19:09.582Z,2.13
2018-09-10T19:21:38.786Z,3.10
2018-09-10T19:24:08.019Z,2.90
2018-09-10T19:26:37.162Z,2.40
2018-09-10T19:29:06.327Z,1.97
2018-09-10T19:31:35.783Z,2.80
2018-09-10T19:34:04.970Z,3.00
2018-09-10T19:36:34.335Z,2.40
2018-09-10T19:39:04.510Z,2.40
2018-09-10T19:41:33.999Z,2.40
2018-09-10T19:44:03.453Z,2.53
2018-09-10T19:46:32.726Z,2.20
2018-09-10T19:49:02.064Z,2.63
2018-09-10T19:51:32.537Z,2.30
2018-09-10T19:54:02.137Z,2.53
2018-09-10T19:56:32.015Z,2.70
2018-09-10T19:59:01.142Z,2.90
2018-09-10T20:01:30.197Z,3.17
2018-09-10T20:03:59.494Z,2.93
2018-09-10T20:06:28.630Z,3.13
2018-09-10T20:08:57.636Z,3.10
2018-09-10T20:11:26.709Z,2.93
2018-09-10T20:13:55.906Z,3.00
2018-09-10T20:16:25.007Z,3.40
2018-09-10T20:18:54.180Z,3.03
2018-09-10T20:21:23.485Z,2.80
2018-09-10T20:23:52.881Z,2.70
2018-09-10T20:26:21.930Z,2.93
2018-09-10T20:28:51.881Z,2.93
2018-09-10T20:31:20.991Z,3.27
2018-09-10T20:33:55.420Z,3.17
2018-09-10T20:36:24.560Z,3.50
2018-09-10T20:38:54.345Z,3.87
2018-09-10T20:41:23.739Z,3.43
2018-09-10T20:43:53.033Z,4.23
2018-09-10T20:46:22.097Z,3.77
2018-09-10T20:48:51.573Z,3.20
2018-09-10T20:51:21.022Z,3.93
2018-09-10T20:53:50.445Z,4.07
2018-09-10T20:56:19.547Z,4.07
2018-09-10T20:58:48.710Z,3.77
2018-09-10T21:01:18.112Z,3.70
2018-09-10T21:03:47.374Z,4.17
2018-09-10T21:06:16.809Z,3.80
2018-09-10T21:08:46.472Z,4.03
2018-09-10T21:11:15.684Z,3.77
2018-09-10T21:13:45.040Z,3.70
2018-09-10T21:16:14.108Z,3.93
2018-09-10T21:18:43.150Z,3.60
2018-09-10T21:21:12.712Z,4.13
2018-09-10T21:23:41.957Z,3.50
2018-09-10T21:26:11.276Z,3.50
2018-09-10T21:28:40.300Z,3.77
2018-09-10T21:31:09.566Z,3.37
2018-09-10T21:33:38.822Z,3.37
2018-09-10T21:36:07.929Z,3.27
2018-09-10T21:38:37.025Z,3.03
2018-09-10T21:41:06.091Z,3.20
2018-09-10T21:43:35.158Z,2.73
2018-09-10T21:46:04.273Z,3.00
2018-09-10T21:48:33.596Z,3.30
2018-09-10T21:51:02.765Z,3.40
2018-09-10T21:53:32.241Z,2.83
2018-09-10T21:56:01.301Z,2.90
2018-09-10T21:58:31.039Z,2.80
2018-09-10T22:01:00.289Z,3.17
2018-09-10T22:03:29.961Z,3.30
2018-09-10T22:05:58.989Z,3.43
2018-09-10T22:08:28.007Z,3.23
2018-09-10T22:10:57.082Z,2.90
2018-09-10T22:13:26.163Z,3.60
2018-09-10T22:15:55.203Z,3.03
2018-09-10T22:18:24.214Z,3.23
2018-09-10T22:20:53.518Z,2.90
2018-09-10T22:23:22.748Z,2.70
2018-09-10T22:25:51.991Z,2.63
2018-09-10T22:28:20.990Z,2.90
2018-09-10T22:30:50.419Z,2.60
2018-09-10T22:33:19.463Z,2.93
2018-09-10T22:35:48.510Z,2.73
2018-09-10T22:38:17.519Z,2.70
2018-09-10T22:40:46.564Z,3.10
2018-09-10T22:43:15.759Z,3.10
2018-09-10T22:45:45.012Z,2.80
2018-09-10T22:48:14.249Z,2.70
2018-09-10T22:50:43.706Z,2.87
2018-09-10T22:53:12.947Z,3.20
2018-09-10T22:55:42.247Z,3.17
2018-09-10T22:58:11.599Z,3.00
2018-09-10T23:00:41.140Z,2.77
2018-09-10T23:03:10.164Z,3.20
2018-09-10T23:05:39.169Z,2.73
2018-09-10T23:08:08.174Z,2.53
2018-09-10T23:10:37.200Z,2.87
2018-09-10T23:13:06.697Z,2.90
2018-09-10T23:15:35.723Z,2.97
2018-09-10T23:18:04.992Z,3.13
2018-09-10T23:20:34.063Z,2.97
2018-09-10T23:23:03.220Z,3.03
2018-09-10T23:25:32.222Z,3.20
2018-09-10T23:28:01.439Z,2.87
2018-09-10T23:30:30.464Z,3.03
2018-09-10T23:33:00.375Z,3.10
2018-09-10T23:35:29.956Z,3.23
2018-09-10T23:37:59.144Z,2.80
2018-09-10T23:40:28.438Z,3.13
2018-09-10T23:42:57.462Z,3.30
2018-09-10T23:45:26.758Z,3.07
2018-09-10T23:47:55.814Z,3.30
2018-09-10T23:50:25.468Z,2.83
2018-09-10T23:52:54.757Z,2.53
2018-09-10T23:55:23.955Z,2.70
2018-09-10T23:57:52.973Z,3.27
